Airfield :
LOGIN :

Register | Disclaimer

   EN    FR    IT 

 










Legend :    VFR   Marginal VFR   IFR   Intensive IFR   Very Intensive IFR
Visi :
Ceiling :
>= 8 km
>= 3000ft
5 to 8 km
1000 to 3000 ft
1500m to 5 km
500 to 1000 ft
800 to 1500m
200 to 500 ft
< 800m
< 200 ft
Symbols :   Thunderstorms  Fog  Heavy snow  Heavy precipitations  Wind > 20 kt
SIGMETs :     Misc.  Thunderstorms  Icing  Turbulence  Mountain Waves  Volcanic Ashes






- Airport Elevation : 370 ft


EBBE - Beauvechain AB

CURRENT METAR :
  • 252025Z AUTO 24005KT 9999 NCD 10/09 Q1013 BLU

EXPIRED METARs :
  • 251925Z AUTO 22005KT 9999 FEW043/// BKN049/// 12/10 Q1013 BLU
  • 251855Z AUTO 21006KT 9999 FEW042/// BKN050/// 12/10 Q1014 BLU
  • 251825Z AUTO 24004KT 9999 FEW043/// BKN050/// 12/10 Q1014 BLU
  • 251755Z AUTO 24005KT 9999 FEW038/// OVC049/// 12/10 Q1014 BLU

Expired Forecast.



MET'MAP, your aeronautical weather chart ! - Copyright ORBIFLY December 2007 - Disclaimer

ORBIFLY MET'MAP TEAM :

Programming & Development : Alexandra Zaïnal
Original concept : Baudouin d'Aumeries
Technical & hardware support : Manuel Goepfert
Assistance : Marc-Olivier Méhu




SOURCES & CREDITS :

   NOAA